createdAt,value
2023-04-22T00:01:02.334Z,11.39
2023-04-22T00:03:30.163Z,11.37
2023-04-22T00:05:57.205Z,11.04
2023-04-22T00:08:25.486Z,11.21
2023-04-22T00:10:52.106Z,10.91
2023-04-22T00:13:18.736Z,11.03
2023-04-22T00:15:45.598Z,11.40
2023-04-22T00:18:14.028Z,11.42
2023-04-22T00:20:44.216Z,10.84
2023-04-22T00:23:14.617Z,10.95
2023-04-22T00:25:41.311Z,10.69
2023-04-22T00:28:08.347Z,11.35
2023-04-22T00:30:35.921Z,10.54
2023-04-22T00:33:02.631Z,11.45
2023-04-22T00:35:29.344Z,11.42
2023-04-22T00:37:57.297Z,10.98
2023-04-22T00:40:23.971Z,11.23
2023-04-22T00:42:51.269Z,10.93
2023-04-22T00:45:20.898Z,11.37
2023-04-22T00:47:48.977Z,11.25
2023-04-22T00:50:16.426Z,11.29
2023-04-22T00:52:43.147Z,11.05
2023-04-22T00:55:12.559Z,10.97
2023-04-22T00:57:39.828Z,11.42
2023-04-22T01:00:09.699Z,11.61
2023-04-22T01:02:38.793Z,11.11
2023-04-22T01:05:12.939Z,11.45
2023-04-22T01:07:39.546Z,11.43
2023-04-22T01:10:06.775Z,11.93
2023-04-22T01:12:33.525Z,11.60
2023-04-22T01:15:03.742Z,11.84
2023-04-22T01:17:32.047Z,11.85
2023-04-22T01:19:59.299Z,11.79
2023-04-22T01:22:29.492Z,12.00
2023-04-22T01:24:56.621Z,11.90
2023-04-22T01:27:23.825Z,11.93
2023-04-22T01:29:52.238Z,12.01
2023-04-22T01:32:19.722Z,11.82
2023-04-22T01:34:46.530Z,11.92
2023-04-22T01:37:13.186Z,11.79
2023-04-22T01:39:40.300Z,11.83
2023-04-22T01:42:07.830Z,11.66
2023-04-22T01:44:34.478Z,11.60
2023-04-22T01:47:01.092Z,11.91
2023-04-22T01:49:27.809Z,11.53
2023-04-22T01:51:54.738Z,11.46
2023-04-22T01:54:21.387Z,11.50
2023-04-22T01:56:53.396Z,11.95
2023-04-22T01:59:21.490Z,11.63
2023-04-22T02:01:48.368Z,11.78
2023-04-22T02:04:15.027Z,11.70
2023-04-22T02:06:41.744Z,11.45
2023-04-22T02:09:08.370Z,11.28
2023-04-22T02:11:35.447Z,10.86
2023-04-22T02:14:02.019Z,11.44
2023-04-22T02:16:28.809Z,11.11
2023-04-22T02:18:55.545Z,10.73
2023-04-22T02:21:22.253Z,11.19
2023-04-22T02:23:49.065Z,10.38
2023-04-22T02:26:15.628Z,10.27
2023-04-22T02:28:42.769Z,9.69
2023-04-22T02:31:09.582Z,9.91
2023-04-22T02:33:36.444Z,9.89
2023-04-22T02:36:03.200Z,9.78
2023-04-22T02:38:29.851Z,9.71
2023-04-22T02:40:56.413Z,9.73
2023-04-22T02:43:23.138Z,9.29
2023-04-22T02:45:49.752Z,9.47
2023-04-22T02:48:16.415Z,9.00
2023-04-22T02:50:43.090Z,9.31
2023-04-22T02:53:09.758Z,9.29
2023-04-22T02:55:36.347Z,9.06
2023-04-22T02:58:02.959Z,9.19
2023-04-22T03:00:29.815Z,9.16
2023-04-22T03:02:56.770Z,9.19
2023-04-22T03:05:23.545Z,9.61
2023-04-22T03:07:50.360Z,9.89
2023-04-22T03:10:17.182Z,9.62
2023-04-22T03:12:43.773Z,9.74
2023-04-22T03:15:10.949Z,10.20
2023-04-22T03:17:37.614Z,10.33
2023-04-22T03:20:04.685Z,10.78
2023-04-22T03:22:31.360Z,10.58
2023-04-22T03:24:58.122Z,10.39
2023-04-22T03:27:26.920Z,10.56
2023-04-22T03:29:53.544Z,10.26
2023-04-22T03:32:20.316Z,10.47
2023-04-22T03:34:46.909Z,10.58
2023-04-22T03:37:13.530Z,10.84
2023-04-22T03:39:40.668Z,10.49
2023-04-22T03:42:07.504Z,10.27
2023-04-22T03:44:34.133Z,10.84
2023-04-22T03:47:00.716Z,10.73
2023-04-22T03:49:27.963Z,10.55
2023-04-22T03:51:54.601Z,10.63
2023-04-22T03:54:21.354Z,10.60
2023-04-22T03:56:48.069Z,10.55
2023-04-22T03:59:14.708Z,10.51
2023-04-22T04:01:41.454Z,11.97
2023-04-22T04:04:08.365Z,13.19
2023-04-22T04:06:35.481Z,13.93
2023-04-22T04:09:02.184Z,13.26
2023-04-22T04:11:28.865Z,13.70
2023-04-22T04:13:55.435Z,14.07
2023-04-22T04:16:22.284Z,13.42
2023-04-22T04:18:52.453Z,11.89
2023-04-22T04:21:19.039Z,11.37
2023-04-22T04:23:46.819Z,11.12
2023-04-22T04:26:14.998Z,11.50
2023-04-22T04:28:41.723Z,10.51
2023-04-22T04:31:08.441Z,11.09
2023-04-22T04:33:36.950Z,10.86
2023-04-22T04:36:04.316Z,11.16
2023-04-22T04:38:31.042Z,11.39
2023-04-22T04:40:58.031Z,11.12
2023-04-22T04:43:26.082Z,11.26
2023-04-22T04:45:53.490Z,11.27
2023-04-22T04:48:20.289Z,10.74
2023-04-22T04:50:47.108Z,10.52
2023-04-22T04:53:13.731Z,10.78
2023-04-22T04:55:40.594Z,10.38
2023-04-22T04:58:07.264Z,11.13
2023-04-22T05:00:33.955Z,11.47
2023-04-22T05:03:00.885Z,11.62
2023-04-22T05:05:28.570Z,11.43
2023-04-22T05:07:55.229Z,10.86
2023-04-22T05:10:21.882Z,11.01
2023-04-22T05:12:48.511Z,11.05
2023-04-22T05:15:15.460Z,11.10
2023-04-22T05:17:42.138Z,11.11
2023-04-22T05:20:09.173Z,10.66
2023-04-22T05:22:41.354Z,10.97
2023-04-22T05:25:08.662Z,10.85
2023-04-22T05:27:37.569Z,11.29
2023-04-22T05:30:04.685Z,11.12
2023-04-22T05:32:31.345Z,11.05
2023-04-22T05:34:58.007Z,10.73
2023-04-22T05:37:24.595Z,11.11
2023-04-22T05:39:51.276Z,11.07
2023-04-22T05:42:17.938Z,10.67
2023-04-22T05:44:44.564Z,11.35
2023-04-22T05:47:11.267Z,11.54
2023-04-22T05:49:38.237Z,11.92
2023-04-22T05:52:05.317Z,12.23
2023-04-22T05:54:31.966Z,11.62
2023-04-22T05:56:58.932Z,12.26
2023-04-22T05:59:26.513Z,12.91
2023-04-22T06:01:53.216Z,13.20
2023-04-22T06:04:20.082Z,12.36
2023-04-22T06:06:48.005Z,12.60
2023-04-22T06:09:14.657Z,12.78
2023-04-22T06:11:41.292Z,12.16
2023-04-22T06:14:07.916Z,12.98
2023-04-22T06:16:34.637Z,12.90
2023-04-22T06:19:01.367Z,13.34
2023-04-22T06:21:28.573Z,13.58
2023-04-22T06:23:55.990Z,13.70
2023-04-22T06:26:22.813Z,15.31
2023-04-22T06:28:49.541Z,14.91
2023-04-22T06:31:16.795Z,16.53
2023-04-22T06:33:44.460Z,18.72
2023-04-22T06:36:11.295Z,19.59
2023-04-22T06:38:38.031Z,20.36
2023-04-22T06:41:04.756Z,21.21
2023-04-22T06:43:31.670Z,21.44
2023-04-22T06:45:58.365Z,22.99
2023-04-22T06:48:25.012Z,24.14
2023-04-22T06:50:51.606Z,23.83
2023-04-22T06:53:18.190Z,24.79
2023-04-22T06:55:45.305Z,25.84
2023-04-22T06:58:11.878Z,26.42
2023-04-22T07:00:38.469Z,27.32
2023-04-22T07:03:05.143Z,27.72
2023-04-22T07:05:32.083Z,28.27
2023-04-22T07:07:58.710Z,29.78
2023-04-22T07:10:25.346Z,29.28
2023-04-22T07:12:51.913Z,28.27
2023-04-22T07:15:18.591Z,28.51
2023-04-22T07:17:45.214Z,27.88
2023-04-22T07:20:11.942Z,27.74
2023-04-22T07:22:38.600Z,28.36
2023-04-22T07:25:07.426Z,28.19
2023-04-22T07:27:37.150Z,29.36
2023-04-22T07:30:04.569Z,29.68
2023-04-22T07:32:31.454Z,43.50
2023-04-22T07:34:58.025Z,71.65
2023-04-22T07:37:24.594Z,82.14
2023-04-22T07:39:51.145Z,76.94
2023-04-22T07:42:17.869Z,69.49
2023-04-22T07:44:44.450Z,62.21
2023-04-22T07:47:11.178Z,56.23
2023-04-22T07:49:38.113Z,46.06
2023-04-22T07:52:04.941Z,36.62
2023-04-22T07:54:31.503Z,35.98
2023-04-22T07:56:58.307Z,43.52
2023-04-22T07:59:24.975Z,38.13
2023-04-22T08:01:54.145Z,30.04
2023-04-22T08:04:23.909Z,26.38
2023-04-22T08:06:50.924Z,24.99
2023-04-22T08:09:17.462Z,24.13
2023-04-22T08:11:44.012Z,23.83
2023-04-22T08:14:10.590Z,24.21
2023-04-22T08:16:39.545Z,23.62
2023-04-22T08:19:06.100Z,23.65
2023-04-22T08:21:32.995Z,22.57
2023-04-22T08:23:59.562Z,21.63
2023-04-22T08:26:26.215Z,21.44
2023-04-22T08:28:52.790Z,21.49
2023-04-22T08:31:19.466Z,21.41
2023-04-22T08:33:46.253Z,21.24
2023-04-22T08:36:12.887Z,19.87
2023-04-22T08:38:39.783Z,19.35
2023-04-22T08:41:07.242Z,19.45
2023-04-22T08:43:34.587Z,19.17
2023-04-22T08:46:02.253Z,19.99
2023-04-22T08:48:31.161Z,19.82
2023-04-22T08:50:58.474Z,18.74
2023-04-22T08:53:25.368Z,18.75
2023-04-22T08:55:55.512Z,16.76
2023-04-22T08:58:23.516Z,14.92
2023-04-22T09:00:50.790Z,15.84
2023-04-22T09:03:18.164Z,15.51
2023-04-22T09:05:46.635Z,14.56
2023-04-22T09:08:15.074Z,13.83
2023-04-22T09:10:43.145Z,14.06
2023-04-22T09:13:10.604Z,14.14
2023-04-22T09:15:37.231Z,14.62
2023-04-22T09:18:06.864Z,13.70
2023-04-22T09:20:33.417Z,14.00
2023-04-22T09:23:05.051Z,13.84
2023-04-22T09:25:35.319Z,13.75
2023-04-22T09:28:03.351Z,14.91
2023-04-22T09:30:33.042Z,14.14
2023-04-22T09:33:03.948Z,14.24
2023-04-22T09:35:41.477Z,13.50
2023-04-22T09:38:11.287Z,13.24
2023-04-22T09:40:42.229Z,13.50
2023-04-22T09:43:09.805Z,14.07
2023-04-22T09:45:39.388Z,14.64
2023-04-22T09:48:17.969Z,15.48
2023-04-22T09:50:48.953Z,15.05
2023-04-22T09:53:18.612Z,14.61
2023-04-22T09:55:49.125Z,15.45
2023-04-22T09:58:18.788Z,15.10
2023-04-22T10:00:49.627Z,16.34
2023-04-22T10:03:16.741Z,16.21
2023-04-22T10:05:45.665Z,16.37
2023-04-22T10:08:14.453Z,16.94
2023-04-22T10:10:45.043Z,14.83
2023-04-22T10:13:11.601Z,15.10
2023-04-22T10:15:45.300Z,14.76
2023-04-22T10:18:17.896Z,15.67
2023-04-22T10:20:47.396Z,15.42
2023-04-22T10:23:20.096Z,15.21
2023-04-22T10:25:54.310Z,14.35
2023-04-22T10:28:23.297Z,14.25
2023-04-22T10:30:50.980Z,14.94
2023-04-22T10:33:31.806Z,14.39
2023-04-22T10:36:19.413Z,15.79
2023-04-22T10:38:55.205Z,16.64
2023-04-22T10:41:33.521Z,16.76
2023-04-22T10:44:02.660Z,16.72
2023-04-22T10:46:38.212Z,16.23
2023-04-22T10:49:11.618Z,16.25
2023-04-22T10:51:46.535Z,16.62
2023-04-22T10:54:31.591Z,16.58
2023-04-22T10:57:09.329Z,16.47
2023-04-22T10:59:45.709Z,16.55
2023-04-22T11:02:15.632Z,15.93
2023-04-22T11:04:43.124Z,16.42
2023-04-22T11:07:36.937Z,16.39
2023-04-22T11:10:16.450Z,17.02
2023-04-22T11:12:45.048Z,15.65
2023-04-22T11:15:14.677Z,16.32
2023-04-22T11:17:44.785Z,15.44
2023-04-22T11:20:17.461Z,15.14
2023-04-22T11:22:50.455Z,15.05
2023-04-22T11:25:17.959Z,15.48
2023-04-22T11:27:45.260Z,16.85
2023-04-22T11:30:18.609Z,17.33
2023-04-22T11:32:50.208Z,17.87
2023-04-22T11:35:20.734Z,17.94
2023-04-22T11:37:59.578Z,18.34
2023-04-22T11:40:39.402Z,19.07
2023-04-22T11:43:12.533Z,19.18
2023-04-22T11:45:44.101Z,19.61
2023-04-22T11:48:12.060Z,19.34
2023-04-22T11:50:44.773Z,19.80
2023-04-22T11:53:21.101Z,20.69
2023-04-22T11:55:51.280Z,19.82
2023-04-22T11:58:24.715Z,20.20
2023-04-22T12:00:53.739Z,19.55
2023-04-22T12:03:23.794Z,19.31
2023-04-22T12:06:04.986Z,19.69
2023-04-22T12:08:37.154Z,19.12
2023-04-22T12:11:06.078Z,19.30
2023-04-22T12:13:38.723Z,19.53
2023-04-22T12:16:14.070Z,19.45
2023-04-22T12:18:48.072Z,18.57
2023-04-22T12:21:17.909Z,19.10
2023-04-22T12:23:53.615Z,18.81
2023-04-22T12:26:25.416Z,19.43
2023-04-22T12:28:54.413Z,18.38
2023-04-22T12:31:21.574Z,18.18
2023-04-22T12:33:48.497Z,17.70
2023-04-22T12:36:16.226Z,18.43
2023-04-22T12:38:45.330Z,18.81
2023-04-22T12:41:13.717Z,19.33
2023-04-22T12:43:40.476Z,18.56
2023-04-22T12:46:08.789Z,18.88
2023-04-22T12:48:40.161Z,19.19
2023-04-22T12:51:07.197Z,17.90
2023-04-22T12:53:34.203Z,17.22
2023-04-22T12:56:01.189Z,18.72
2023-04-22T12:58:28.066Z,17.80
2023-04-22T13:00:54.739Z,17.38
2023-04-22T13:03:21.606Z,17.58
2023-04-22T13:05:48.545Z,18.03
2023-04-22T13:08:15.417Z,17.75
2023-04-22T13:10:42.246Z,18.13
2023-04-22T13:15:39.921Z,18.35
2023-04-22T13:18:07.680Z,18.13
2023-04-22T13:20:34.366Z,18.02
2023-04-22T13:23:02.356Z,17.81
2023-04-22T13:25:29.082Z,18.39
2023-04-22T13:27:55.805Z,19.76
2023-04-22T13:30:22.618Z,19.79
2023-04-22T13:32:49.271Z,21.20
2023-04-22T13:35:18.071Z,20.89
2023-04-22T13:37:46.108Z,22.30
2023-04-22T13:40:12.870Z,20.94
2023-04-22T13:42:39.716Z,20.79
2023-04-22T13:45:07.040Z,20.77
2023-04-22T13:47:33.716Z,21.99
2023-04-22T13:50:01.621Z,22.32
2023-04-22T13:52:28.871Z,22.70
2023-04-22T13:54:55.419Z,24.00
2023-04-22T13:57:23.063Z,23.48
2023-04-22T13:59:50.779Z,23.58
2023-04-22T14:02:17.819Z,23.51
2023-04-22T14:04:44.641Z,23.28
2023-04-22T14:07:11.677Z,24.46
2023-04-22T14:09:38.469Z,23.56
2023-04-22T14:12:07.925Z,23.21
2023-04-22T14:14:34.742Z,21.55
2023-04-22T14:17:01.577Z,22.45
2023-04-22T14:19:30.343Z,22.74
2023-04-22T14:21:57.379Z,23.18
2023-04-22T14:24:24.352Z,22.72
2023-04-22T14:26:54.432Z,23.54
2023-04-22T14:29:21.376Z,23.07
2023-04-22T14:31:49.712Z,23.41
2023-04-22T14:34:17.131Z,23.41
2023-04-22T14:36:44.123Z,23.14
2023-04-22T14:39:10.986Z,23.48
2023-04-22T14:41:39.950Z,22.49
2023-04-22T14:44:06.602Z,22.26
2023-04-22T14:46:33.305Z,21.70
2023-04-22T14:48:59.950Z,23.10
2023-04-22T14:51:27.578Z,23.35
2023-04-22T14:53:54.516Z,22.22
2023-04-22T14:56:21.419Z,22.42
2023-04-22T14:58:48.498Z,23.76
2023-04-22T15:01:15.749Z,22.25
2023-04-22T15:03:42.699Z,22.29
2023-04-22T15:06:09.470Z,21.17
2023-04-22T15:08:36.336Z,21.49
2023-04-22T15:11:02.926Z,22.12
2023-04-22T15:13:29.513Z,21.86
2023-04-22T15:15:58.461Z,23.37
2023-04-22T15:18:25.071Z,23.35
2023-04-22T15:20:51.711Z,22.88
2023-04-22T15:23:18.404Z,22.11
2023-04-22T15:25:44.965Z,22.57
2023-04-22T15:28:11.752Z,21.61
2023-04-22T15:30:40.650Z,22.45
2023-04-22T15:33:07.434Z,22.75
2023-04-22T15:35:34.114Z,22.98
2023-04-22T15:38:01.385Z,22.04
2023-04-22T15:40:28.109Z,22.26
2023-04-22T15:42:54.636Z,22.50
2023-04-22T15:45:21.467Z,21.01
2023-04-22T15:47:52.382Z,21.48
2023-04-22T15:50:20.025Z,21.90
2023-04-22T15:52:46.615Z,23.74
2023-04-22T15:55:13.355Z,22.49
2023-04-22T15:57:43.966Z,22.66
2023-04-22T16:00:13.695Z,24.07
2023-04-22T16:02:42.972Z,23.74
2023-04-22T16:05:11.679Z,24.16
2023-04-22T16:07:38.710Z,24.24
2023-04-22T16:10:05.942Z,26.31
2023-04-22T16:12:34.222Z,27.43
2023-04-22T16:15:01.627Z,26.35
2023-04-22T16:17:28.349Z,26.91
2023-04-22T16:19:55.523Z,28.71
2023-04-22T16:22:22.231Z,29.59
2023-04-22T16:24:49.168Z,29.99
2023-04-22T16:27:18.830Z,30.67
2023-04-22T16:29:49.629Z,30.80
2023-04-22T16:32:16.299Z,30.38
2023-04-22T16:34:42.951Z,30.56
2023-04-22T16:37:17.085Z,31.05
2023-04-22T16:39:43.726Z,30.76
2023-04-22T16:42:10.434Z,32.09
2023-04-22T16:44:37.036Z,29.66
2023-04-22T16:47:03.643Z,28.82
2023-04-22T16:49:30.384Z,27.50
2023-04-22T16:51:57.005Z,28.03
2023-04-22T16:54:23.587Z,28.33
2023-04-22T16:56:50.217Z,27.87
2023-04-22T16:59:16.835Z,27.55
2023-04-22T17:01:43.454Z,27.96
2023-04-22T17:04:13.565Z,30.92
2023-04-22T17:06:40.963Z,29.33
2023-04-22T17:09:10.873Z,29.72
2023-04-22T17:11:38.853Z,27.87
2023-04-22T17:14:08.102Z,25.89
2023-04-22T17:16:37.604Z,28.14
2023-04-22T17:19:08.793Z,27.85
2023-04-22T17:21:35.725Z,27.10
2023-04-22T17:24:05.755Z,26.96
2023-04-22T17:26:33.393Z,27.69
2023-04-22T17:29:13.960Z,28.53
2023-04-22T17:31:42.541Z,27.29
2023-04-22T17:34:25.083Z,27.87
2023-04-22T17:36:54.390Z,30.36
2023-04-22T17:39:32.386Z,31.80
2023-04-22T17:42:14.450Z,30.17
2023-04-22T17:44:47.864Z,45.80
2023-04-22T17:47:28.636Z,30.73
2023-04-22T17:49:56.188Z,30.26
2023-04-22T17:52:23.140Z,31.21
2023-04-22T17:54:52.329Z,30.83
2023-04-22T17:57:39.080Z,32.35
2023-04-22T18:00:10.198Z,32.82
2023-04-22T18:02:37.230Z,34.14
2023-04-22T18:05:05.569Z,36.43
2023-04-22T18:07:32.291Z,36.84
2023-04-22T18:09:58.962Z,39.48
2023-04-22T18:12:30.379Z,40.33
2023-04-22T18:14:57.981Z,37.41
2023-04-22T18:17:24.701Z,35.31
2023-04-22T18:19:54.411Z,35.67
2023-04-22T18:22:28.786Z,37.65
2023-04-22T18:24:55.519Z,38.50
2023-04-22T18:27:22.122Z,36.67
2023-04-22T18:29:48.843Z,36.92
2023-04-22T18:32:20.124Z,35.84
2023-04-22T18:34:47.075Z,36.01
2023-04-22T18:37:14.028Z,34.17
2023-04-22T18:39:40.760Z,34.24
2023-04-22T18:42:07.471Z,34.79
2023-04-22T18:44:34.220Z,35.18
2023-04-22T18:47:00.884Z,32.18
2023-04-22T18:49:27.908Z,32.28
2023-04-22T18:51:54.489Z,33.34
2023-04-22T18:54:21.201Z,31.12
2023-04-22T18:56:47.786Z,32.60
2023-04-22T18:59:14.345Z,33.56
2023-04-22T19:01:41.197Z,32.87
2023-04-22T19:04:08.132Z,33.50
2023-04-22T19:06:34.986Z,33.16
2023-04-22T19:09:01.685Z,33.69
2023-04-22T19:11:28.595Z,33.46
2023-04-22T19:13:55.567Z,33.70
2023-04-22T19:16:23.696Z,33.46
2023-04-22T19:18:52.412Z,33.43
2023-04-22T19:21:19.756Z,34.52
2023-04-22T19:23:47.031Z,34.65
2023-04-22T19:26:13.728Z,34.96
2023-04-22T19:28:47.052Z,33.95
2023-04-22T19:31:17.340Z,33.13
2023-04-22T19:33:44.953Z,33.33
2023-04-22T19:36:11.614Z,33.52
2023-04-22T19:38:38.560Z,32.87
2023-04-22T19:41:05.506Z,33.23
2023-04-22T19:43:32.155Z,33.13
2023-04-22T19:45:59.111Z,34.57
2023-04-22T19:48:26.176Z,34.07
2023-04-22T19:50:53.704Z,35.16
2023-04-22T19:53:26.076Z,34.73
2023-04-22T19:55:52.816Z,34.56
2023-04-22T19:58:19.981Z,35.08
2023-04-22T20:00:46.938Z,34.04
2023-04-22T20:03:14.753Z,33.81
2023-04-22T20:05:43.768Z,33.61
2023-04-22T20:08:16.604Z,34.60
2023-04-22T20:10:49.518Z,35.29
2023-04-22T20:13:17.298Z,35.60
2023-04-22T20:15:44.653Z,35.50
2023-04-22T20:18:11.913Z,33.61
2023-04-22T20:20:40.660Z,35.04
2023-04-22T20:23:10.709Z,34.34
2023-04-22T20:25:42.039Z,33.71
2023-04-22T20:28:10.086Z,34.34
2023-04-22T20:30:36.984Z,35.12
2023-04-22T20:33:03.802Z,34.07
2023-04-22T20:35:32.021Z,34.05
2023-04-22T20:38:01.285Z,35.04
2023-04-22T20:40:29.494Z,35.75
2023-04-22T20:43:01.103Z,35.06
2023-04-22T20:45:27.937Z,35.60
2023-04-22T20:47:54.582Z,35.16
2023-04-22T20:50:21.375Z,35.63
2023-04-22T20:52:49.170Z,35.49
2023-04-22T20:55:17.269Z,36.91
2023-04-22T20:57:44.003Z,38.10
2023-04-22T21:00:14.173Z,37.11
2023-04-22T21:02:42.171Z,37.39
2023-04-22T21:05:12.394Z,36.81
2023-04-22T21:07:44.182Z,37.72
2023-04-22T21:10:13.316Z,37.56
2023-04-22T21:12:40.438Z,38.26
2023-04-22T21:15:08.332Z,38.27
2023-04-22T21:17:37.321Z,37.25
2023-04-22T21:20:05.541Z,37.10
2023-04-22T21:22:32.846Z,37.72
2023-04-22T21:25:00.702Z,38.19
2023-04-22T21:27:27.653Z,41.57
2023-04-22T21:30:04.826Z,41.29
2023-04-22T21:32:33.020Z,42.88
2023-04-22T21:35:00.193Z,43.29
2023-04-22T21:37:35.319Z,44.73
2023-04-22T21:40:02.066Z,43.78
2023-04-22T21:42:28.848Z,44.61
2023-04-22T21:44:55.606Z,43.80
2023-04-22T21:47:22.299Z,44.04
2023-04-22T21:49:48.987Z,45.56
2023-04-22T21:52:16.343Z,44.18
2023-04-22T21:54:43.927Z,43.53
2023-04-22T21:57:12.986Z,44.13
2023-04-22T21:59:42.630Z,45.37
2023-04-22T22:02:11.691Z,45.70
2023-04-22T22:04:39.390Z,46.13
2023-04-22T22:07:07.010Z,45.36
2023-04-22T22:09:33.825Z,45.06
2023-04-22T22:12:01.887Z,44.88
2023-04-22T22:14:28.601Z,45.01
2023-04-22T22:16:55.735Z,45.36
2023-04-22T22:19:22.816Z,47.12
2023-04-22T22:21:49.502Z,47.66
2023-04-22T22:24:16.434Z,47.29
2023-04-22T22:26:43.477Z,49.11
2023-04-22T22:29:15.459Z,49.82
2023-04-22T22:31:44.317Z,50.67
2023-04-22T22:34:11.643Z,50.75
2023-04-22T22:36:38.347Z,50.59
2023-04-22T22:39:05.390Z,50.41
2023-04-22T22:41:32.222Z,48.59
2023-04-22T22:43:58.923Z,50.12
2023-04-22T22:46:25.798Z,48.98
2023-04-22T22:48:52.670Z,50.30
2023-04-22T22:51:19.300Z,52.45
2023-04-22T22:53:45.974Z,52.31
2023-04-22T22:56:15.845Z,51.70
2023-04-22T22:58:44.755Z,52.38
2023-04-22T23:01:11.502Z,53.30
2023-04-22T23:03:38.352Z,52.48
2023-04-22T23:06:05.880Z,53.30
2023-04-22T23:08:32.539Z,50.41
2023-04-22T23:10:59.158Z,49.28
2023-04-22T23:13:25.852Z,49.38
2023-04-22T23:15:52.442Z,50.44
2023-04-22T23:18:19.683Z,51.16
2023-04-22T23:20:50.018Z,49.18
2023-04-22T23:23:18.644Z,50.17
2023-04-22T23:25:46.588Z,48.51
2023-04-22T23:28:13.636Z,50.42
2023-04-22T23:30:41.497Z,50.04
2023-04-22T23:33:12.722Z,49.92
2023-04-22T23:35:41.450Z,50.67
2023-04-22T23:38:11.884Z,50.09
2023-04-22T23:40:38.593Z,50.51
2023-04-22T23:43:05.252Z,48.91
2023-04-22T23:45:32.041Z,50.25
2023-04-22T23:47:58.718Z,51.39
2023-04-22T23:50:25.436Z,50.88
2023-04-22T23:52:52.091Z,50.23
2023-04-22T23:55:19.357Z,52.19
2023-04-22T23:57:46.251Z,50.73
